Time;durP1;ratioP1;P1;durP2;ratioP2;P2;SDS_P1;SDS_P2;PMS_P1;PMS_P2;Temp;Humidity;BMP_temperature;BMP_pressure;BME280_temperature;BME280_humidity;BME280_pressure;Samples;Min_cycle;Max_cycle;Signal;HPM_P1;HPM_P2
2022/05/10 00:01:14;;;;;;;13.30;12.00;;;;;;;;;;10336791;28;20268;-76
2022/05/10 00:06:14;;;;;;;13.10;11.90;;;;;;;;;;10370751;28;20064;-74
2022/05/10 00:11:15;;;;;;;13.55;12.23;;;;;;;;;;10348205;28;20151;-76
2022/05/10 00:16:16;;;;;;;14.23;12.73;;;;;;;;;;10351200;28;20049;-77
2022/05/10 00:21:20;;;;;;;13.43;12.13;;;;;;;;;;10374139;28;20283;-76
2022/05/10 00:26:22;;;;;;;14.40;13.07;;;;;;;;;;10336193;28;20114;-76
2022/05/10 00:31:22;;;;;;;15.02;13.52;;;;;;;;;;10372978;28;20108;-76
2022/05/10 00:36:24;;;;;;;13.82;12.63;;;;;;;;;;10363377;28;20763;-75
2022/05/10 00:41:31;;;;;;;15.48;13.95;;;;;;;;;;10350141;28;20061;-75
2022/05/10 00:46:36;;;;;;;13.68;12.27;;;;;;;;;;10366935;28;20067;-75
2022/05/10 00:51:43;;;;;;;14.23;12.77;;;;;;;;;;10339531;28;20129;-76
2022/05/10 00:56:48;;;;;;;14.30;12.90;;;;;;;;;;10339543;28;20064;-76
2022/05/10 01:01:51;;;;;;;15.05;13.55;;;;;;;;;;10348452;28;20041;-76
2022/05/10 01:06:56;;;;;;;15.63;14.00;;;;;;;;;;10335137;28;20045;-76
2022/05/10 01:12:02;;;;;;;14.60;13.15;;;;;;;;;;10372288;28;20042;-75
2022/05/10 01:17:02;;;;;;;14.75;13.25;;;;;;;;;;10357435;28;20354;-77
2022/05/10 01:22:11;;;;;;;15.30;13.70;;;;;;;;;;10365161;28;20125;-76
2022/05/10 01:27:12;;;;;;;14.63;13.13;;;;;;;;;;10343693;28;20061;-75
2022/05/10 01:37:37;;;;;;;15.32;13.60;;;;;;;;;;10387070;28;20038;-76
2022/05/10 01:42:43;;;;;;;15.65;13.93;;;;;;;;;;10347679;28;20052;-75
2022/05/10 01:47:45;;;;;;;15.68;14.07;;;;;;;;;;10329364;28;20599;-76
2022/05/10 01:52:52;;;;;;;14.73;13.25;;;;;;;;;;10365335;28;20114;-75
2022/05/10 01:57:53;;;;;;;16.38;14.23;;;;;;;;;;10347649;28;20042;-77
2022/05/10 02:02:56;;;;;;;14.85;13.35;;;;;;;;;;10369093;28;20049;-76
2022/05/10 02:08:01;;;;;;;14.80;13.38;;;;;;;;;;10347957;28;20141;-76
2022/05/10 02:13:24;;;;;;;15.10;13.35;;;;;;;;;;10340666;28;20378;-76
2022/05/10 02:18:24;;;;;;;14.52;13.13;;;;;;;;;;10361436;28;20120;-76
2022/05/10 02:23:28;;;;;;;15.03;13.53;;;;;;;;;;10354899;28;20676;-76
2022/05/10 02:28:28;;;;;;;;;;;;;;;;;;10322093;28;20168;-75
2022/05/10 02:33:29;;;;;;;14.57;13.05;;;;;;;;;;10359971;28;19949;-76
2022/05/10 02:38:31;;;;;;;;;;;;;;;;;;10376157;28;20046;-76
2022/05/10 02:43:40;;;;;;;15.30;13.70;;;;;;;;;;10349820;28;19913;-76
2022/05/10 02:48:42;;;;;;;14.30;13.00;;;;;;;;;;10348312;28;20584;-77
2022/05/10 02:53:42;;;;;;;12.80;11.55;;;;;;;;;;10374339;28;20122;-75
2022/05/10 02:58:45;;;;;;;15.70;14.10;;;;;;;;;;10350671;28;20046;-76
2022/05/10 03:03:46;;;;;;;13.52;12.15;;;;;;;;;;10358480;28;20113;-76
2022/05/10 03:08:47;;;;;;;15.63;14.02;;;;;;;;;;10357524;28;20046;-77
2022/05/10 03:13:49;;;;;;;15.07;13.52;;;;;;;;;;10367435;28;20073;-77
2022/05/10 03:18:50;;;;;;;16.42;14.73;;;;;;;;;;10348489;28;20146;-77
2022/05/10 03:23:53;;;;;;;14.65;13.13;;;;;;;;;;10362638;28;20125;-76
2022/05/10 03:28:56;;;;;;;15.45;13.85;;;;;;;;;;10362430;28;20038;-75
2022/05/10 03:39:34;;;;;;;15.25;13.68;;;;;;;;;;10293032;28;20045;-77
2022/05/10 03:44:37;;;;;;;15.52;14.00;;;;;;;;;;10358726;28;20053;-75
2022/05/10 03:49:39;;;;;;;14.93;13.32;;;;;;;;;;10376532;28;20057;-76
2022/05/10 03:54:40;;;;;;;15.53;13.90;;;;;;;;;;10362874;28;20033;-75
2022/05/10 03:59:41;;;;;;;17.10;15.40;;;;;;;;;;10379181;28;20041;-76
2022/05/10 04:04:43;;;;;;;16.77;15.07;;;;;;;;;;10366426;28;20148;-75
2022/05/10 04:09:45;;;;;;;15.80;14.20;;;;;;;;;;10369424;28;20048;-75
2022/05/10 04:14:46;;;;;;;14.93;13.32;;;;;;;;;;10358976;28;20064;-75
2022/05/10 04:19:46;;;;;;;18.25;14.77;;;;;;;;;;10375767;28;20033;-76
2022/05/10 04:24:47;;;;;;;17.92;14.93;;;;;;;;;;10387190;28;20042;-76
2022/05/10 04:29:48;;;;;;;16.35;14.73;;;;;;;;;;10351442;28;20030;-75
2022/05/10 04:34:49;;;;;;;15.55;13.48;;;;;;;;;;10353879;28;20042;-75
2022/05/10 04:45:11;;;;;;;17.42;15.63;;;;;;;;;;10351810;28;20076;-76
2022/05/10 04:50:13;;;;;;;15.43;13.83;;;;;;;;;;10362175;28;20147;-78
2022/05/10 04:55:14;;;;;;;17.58;15.38;;;;;;;;;;10366203;28;20042;-76
2022/05/10 05:00:16;;;;;;;17.52;15.63;;;;;;;;;;10336896;28;20349;-75
2022/05/10 05:05:17;;;;;;;16.58;14.32;;;;;;;;;;10350466;28;20125;-74
2022/05/10 05:10:18;;;;;;;15.65;13.95;;;;;;;;;;10360141;28;20061;-76
2022/05/10 05:15:19;;;;;;;15.88;14.18;;;;;;;;;;10356782;28;20054;-74
2022/05/10 05:20:25;;;;;;;14.82;13.07;;;;;;;;;;10379339;28;20062;-74
2022/05/10 05:25:29;;;;;;;16.88;15.13;;;;;;;;;;10349258;28;20045;-76
2022/05/10 05:30:29;;;;;;;15.32;13.80;;;;;;;;;;10344055;28;20052;-76
2022/05/10 05:35:30;;;;;;;15.63;13.35;;;;;;;;;;10352365;28;20046;-76
2022/05/10 05:40:32;;;;;;;12.57;11.38;;;;;;;;;;10370951;28;20373;-76
2022/05/10 05:45:33;;;;;;;16.92;15.23;;;;;;;;;;10361873;28;20120;-77
2022/05/10 05:50:43;;;;;;;17.45;15.70;;;;;;;;;;10369302;28;20037;-76
2022/05/10 05:55:48;;;;;;;18.38;15.98;;;;;;;;;;10386550;28;20396;-76
2022/05/10 06:00:49;;;;;;;17.33;15.52;;;;;;;;;;10394960;28;20037;-76
2022/05/10 06:05:49;;;;;;;17.67;15.97;;;;;;;;;;10359279;28;20046;-77
2022/05/10 06:10:52;;;;;;;18.23;15.17;;;;;;;;;;10388502;28;20277;-77
2022/05/10 06:15:53;;;;;;;22.92;19.17;;;;;;;;;;10382841;28;20065;-77
2022/05/10 06:20:53;;;;;;;20.40;17.67;;;;;;;;;;10373702;28;20034;-78
2022/05/10 06:25:54;;;;;;;19.40;17.35;;;;;;;;;;10369350;28;20104;-77
2022/05/10 06:30:56;;;;;;;19.48;17.27;;;;;;;;;;10350321;28;20501;-77
2022/05/10 06:35:56;;;;;;;18.83;16.80;;;;;;;;;;10355324;28;20073;-76
2022/05/10 06:41:01;;;;;;;15.75;14.05;;;;;;;;;;10388666;28;20041;-75
2022/05/10 06:46:09;;;;;;;23.02;18.38;;;;;;;;;;10360584;28;20061;-76
2022/05/10 06:51:09;;;;;;;25.33;21.48;;;;;;;;;;10348154;28;20050;-78
2022/05/10 06:56:10;;;;;;;25.50;20.90;;;;;;;;;;10381284;28;20046;-78
2022/05/10 07:01:11;;;;;;;23.55;20.38;;;;;;;;;;10360390;28;20332;-76
2022/05/10 07:06:13;;;;;;;25.75;22.38;;;;;;;;;;10379907;28;20068;-76
2022/05/10 07:11:15;;;;;;;25.30;22.10;;;;;;;;;;10376071;28;20046;-76
2022/05/10 07:16:17;;;;;;;23.95;21.45;;;;;;;;;;10391096;28;20054;-78
2022/05/10 07:21:17;;;;;;;25.92;22.10;;;;;;;;;;10364037;28;20179;-76
2022/05/10 07:26:18;;;;;;;24.03;21.17;;;;;;;;;;10368682;28;20084;-77
2022/05/10 07:31:18;;;;;;;24.20;20.77;;;;;;;;;;10393638;28;20037;-79
2022/05/10 07:36:24;;;;;;;22.33;18.77;;;;;;;;;;10382885;28;20045;-79
2022/05/10 07:42:04;;;;;;;24.23;18.73;;;;;;;;;;10393474;28;20048;-77
2022/05/10 07:47:04;;;;;;;27.80;21.35;;;;;;;;;;10373952;28;20046;-78
2022/05/10 07:52:05;;;;;;;19.67;17.10;;;;;;;;;;10370971;28;20034;-77
2022/05/10 07:57:05;;;;;;;21.75;18.88;;;;;;;;;;10368931;28;20042;-75
2022/05/10 08:02:06;;;;;;;42.53;25.15;;;;;;;;;;10360917;28;20033;-74
2022/05/10 08:07:07;;;;;;;18.92;16.73;;;;;;;;;;10387125;28;20049;-78
2022/05/10 08:12:07;;;;;;;20.70;17.43;;;;;;;;;;10373837;28;20065;-78
2022/05/10 08:17:12;;;;;;;16.23;14.32;;;;;;;;;;10383926;28;20276;-77
2022/05/10 08:22:12;;;;;;;16.63;13.70;;;;;;;;;;10365582;28;20042;-78
2022/05/10 08:27:13;;;;;;;13.40;11.88;;;;;;;;;;10363975;28;20050;-77
2022/05/10 08:32:17;;;;;;;13.15;11.82;;;;;;;;;;10381643;28;20042;-78
2022/05/10 08:37:18;;;;;;;12.82;11.27;;;;;;;;;;10363529;28;20077;-77
2022/05/10 08:42:24;;;;;;;12.93;11.33;;;;;;;;;;10382516;28;20121;-77
2022/05/10 08:47:27;;;;;;;15.35;11.93;;;;;;;;;;10353403;28;20123;-78
2022/05/10 08:52:32;;;;;;;9.55;8.60;;;;;;;;;;10354287;28;20117;-75
2022/05/10 08:57:47;;;;;;;16.58;11.48;;;;;;;;;;10381117;28;20057;-78
2022/05/10 09:02:53;;;;;;;8.80;7.50;;;;;;;;;;10357982;28;20050;-78
2022/05/10 09:07:54;;;;;;;10.38;9.25;;;;;;;;;;10345365;28;20506;-77
2022/05/10 09:12:58;;;;;;;15.52;11.45;;;;;;;;;;10345169;28;20052;-77
2022/05/10 09:18:19;;;;;;;46.05;14.90;;;;;;;;;;10366776;28;20057;-77
2022/05/10 09:23:28;;;;;;;14.90;11.73;;;;;;;;;;10358876;28;20048;-75
2022/05/10 09:28:41;;;;;;;12.80;9.63;;;;;;;;;;10398078;28;20042;-76
2022/05/10 09:39:19;;;;;;;17.85;11.48;;;;;;;;;;10379011;28;20050;-78
2022/05/10 09:44:21;;;;;;;9.98;7.93;;;;;;;;;;10378055;28;20042;-79
2022/05/10 09:49:29;;;;;;;7.93;7.22;;;;;;;;;;10379122;28;20041;-80
2022/05/10 09:54:36;;;;;;;7.85;6.78;;;;;;;;;;10372246;28;20064;-78
2022/05/10 09:59:39;;;;;;;7.78;7.10;;;;;;;;;;10379442;28;20038;-80
2022/05/10 10:04:41;;;;;;;7.60;6.75;;;;;;;;;;10349066;28;20469;-77
2022/05/10 10:09:43;;;;;;;8.70;7.85;;;;;;;;;;10358078;28;20034;-78
2022/05/10 10:14:45;;;;;;;8.23;6.40;;;;;;;;;;10370907;28;20045;-74
2022/05/10 10:19:48;;;;;;;8.15;7.40;;;;;;;;;;10373094;28;20034;-76
2022/05/10 10:24:48;;;;;;;6.97;6.13;;;;;;;;;;10377437;28;20153;-74
2022/05/10 10:29:51;;;;;;;7.40;6.70;;;;;;;;;;10360873;28;20030;-75
2022/05/10 10:35:04;;;;;;;10.90;9.45;;;;;;;;;;10367395;28;20041;-73
2022/05/10 10:40:04;;;;;;;;;;;;;;;;;;10379860;28;20045;-73
2022/05/10 10:45:40;;;;;;;7.85;7.15;;;;;;;;;;10377354;28;19925;-73
2022/05/10 10:50:45;;;;;;;7.05;6.35;;;;;;;;;;10377360;28;20038;-72
2022/05/10 10:55:54;;;;;;;6.60;6.00;;;;;;;;;;10375854;28;20045;-72
2022/05/10 11:00:58;;;;;;;7.40;6.30;;;;;;;;;;10377579;28;20042;-72
2022/05/10 11:06:17;;;;;;;6.65;6.15;;;;;;;;;;10375756;28;20151;-72
2022/05/10 11:11:28;;;;;;;6.88;6.28;;;;;;;;;;10376190;28;20044;-73
2022/05/10 11:16:28;;;;;;;6.50;6.00;;;;;;;;;;10357695;28;20065;-73
2022/05/10 11:21:41;;;;;;;6.32;5.82;;;;;;;;;;10358738;28;20172;-71
2022/05/10 11:27:06;;;;;;;6.47;5.88;;;;;;;;;;10376013;28;20050;-71
2022/05/10 11:32:09;;;;;;;7.13;6.43;;;;;;;;;;10376251;28;20322;-78
2022/05/10 11:37:12;;;;;;;6.10;5.60;;;;;;;;;;10375435;28;20049;-79
2022/05/10 11:42:26;;;;;;;6.45;5.95;;;;;;;;;;10385220;28;20041;-76
2022/05/10 11:47:26;;;;;;;7.28;6.25;;;;;;;;;;10390810;28;20049;-77
2022/05/10 11:52:43;;;;;;;7.28;6.47;;;;;;;;;;10387561;28;20117;-78
2022/05/10 11:57:44;;;;;;;7.25;6.55;;;;;;;;;;10382066;28;20575;-74
2022/05/10 12:02:45;;;;;;;6.60;6.00;;;;;;;;;;10356672;28;20179;-72
2022/05/10 12:07:46;;;;;;;5.88;5.30;;;;;;;;;;10373707;28;20188;-73
2022/05/10 12:12:47;;;;;;;5.90;5.40;;;;;;;;;;10340448;28;20181;-72
2022/05/10 12:23:09;;;;;;;6.30;5.67;;;;;;;;;;10372205;28;20094;-73
2022/05/10 12:28:29;;;;;;;6.43;4.97;;;;;;;;;;10373708;28;20080;-72
2022/05/10 12:33:31;;;;;;;5.15;4.75;;;;;;;;;;10358080;28;20390;-73
2022/05/10 12:38:41;;;;;;;12.18;5.78;;;;;;;;;;10377853;28;20469;-72
2022/05/10 12:43:57;;;;;;;7.45;5.63;;;;;;;;;;10355749;28;20034;-72
2022/05/10 12:49:09;;;;;;;6.30;5.45;;;;;;;;;;10373381;28;20046;-72
2022/05/10 12:54:15;;;;;;;166.55;37.80;;;;;;;;;;10373131;28;20046;-74
2022/05/10 12:59:26;;;;;;;6.60;5.63;;;;;;;;;;10362882;28;20052;-72
2022/05/10 13:04:29;;;;;;;5.55;5.05;;;;;;;;;;10355471;28;20052;-72
2022/05/10 13:09:38;;;;;;;6.63;4.97;;;;;;;;;;10372778;28;20060;-71
2022/05/10 13:14:43;;;;;;;4.80;4.43;;;;;;;;;;10339543;28;20108;-71
2022/05/10 13:19:44;;;;;;;5.60;4.57;;;;;;;;;;10373778;28;20048;-72
2022/05/10 13:24:46;;;;;;;5.03;4.53;;;;;;;;;;10374670;28;20057;-73
2022/05/10 13:29:48;;;;;;;5.70;5.15;;;;;;;;;;10373647;28;20040;-70
2022/05/10 13:34:49;;;;;;;5.10;4.63;;;;;;;;;;10373867;28;20045;-71
2022/05/10 13:39:50;;;;;;;5.80;5.28;;;;;;;;;;10373849;28;20045;-70
2022/05/10 13:44:50;;;;;;;5.63;5.13;;;;;;;;;;10378001;28;20050;-77
2022/05/10 13:49:52;;;;;;;5.50;5.00;;;;;;;;;;10380564;28;20042;-76
2022/05/10 13:54:55;;;;;;;4.80;4.40;;;;;;;;;;10362227;28;20030;-76
2022/05/10 13:59:57;;;;;;;9.20;8.30;;;;;;;;;;10361545;28;20037;-76
2022/05/10 14:04:57;;;;;;;5.10;4.60;;;;;;;;;;10390893;28;20101;-77
2022/05/10 14:10:00;;;;;;;5.27;4.87;;;;;;;;;;10374509;28;20038;-76
2022/05/10 14:15:12;;;;;;;5.18;4.65;;;;;;;;;;10369746;28;20354;-77
2022/05/10 14:20:20;;;;;;;5.30;4.90;;;;;;;;;;10382394;28;20041;-77
2022/05/10 14:25:24;;;;;;;5.03;4.63;;;;;;;;;;10364771;28;20045;-77
2022/05/10 14:30:26;;;;;;;5.05;4.65;;;;;;;;;;10365351;28;20068;-78
2022/05/10 14:35:31;;;;;;;5.82;4.72;;;;;;;;;;10383168;28;20034;-79
2022/05/10 14:40:37;;;;;;;6.15;5.20;;;;;;;;;;10392109;28;20215;-81
2022/05/10 14:45:39;;;;;;;22.85;17.30;;;;;;;;;;10380951;28;20066;-78
2022/05/10 14:50:42;;;;;;;6.75;6.15;;;;;;;;;;10389583;28;20029;-79
2022/05/10 14:55:43;;;;;;;5.55;5.05;;;;;;;;;;10395740;28;20053;-78
2022/05/10 15:00:58;;;;;;;5.68;5.18;;;;;;;;;;10388343;28;20080;-79
2022/05/10 15:05:58;;;;;;;5.53;4.95;;;;;;;;;;10359801;28;20077;-79
2022/05/10 15:10:59;;;;;;;5.97;5.40;;;;;;;;;;10353356;28;20061;-79
2022/05/10 15:16:08;;;;;;;5.10;4.60;;;;;;;;;;10380806;28;20491;-80
2022/05/10 15:21:09;;;;;;;5.03;4.47;;;;;;;;;;10390436;28;20137;-79
2022/05/10 15:26:20;;;;;;;5.40;4.90;;;;;;;;;;10393101;28;20104;-79
2022/05/10 15:31:22;;;;;;;5.25;4.75;;;;;;;;;;10404095;28;20053;-78
2022/05/10 15:36:23;;;;;;;4.68;4.25;;;;;;;;;;10393640;28;20041;-78
2022/05/10 15:41:23;;;;;;;5.00;4.60;;;;;;;;;;10397465;28;20058;-79
2022/05/10 15:46:24;;;;;;;6.97;6.27;;;;;;;;;;10397618;28;20069;-80
2022/05/10 15:51:24;;;;;;;5.23;4.83;;;;;;;;;;10396738;28;20366;-80
2022/05/10 15:56:26;;;;;;;5.47;4.97;;;;;;;;;;10374189;28;20045;-79
2022/05/10 16:01:28;;;;;;;;;;;;;;;;;;10374480;28;20034;-79
2022/05/10 16:06:29;;;;;;;6.53;5.50;;;;;;;;;;10372438;28;19924;-79
2022/05/10 16:11:31;;;;;;;5.15;4.65;;;;;;;;;;10394446;28;20273;-80
2022/05/10 16:16:31;;;;;;;5.80;5.20;;;;;;;;;;10378462;28;20068;-79
2022/05/10 16:21:34;;;;;;;6.30;5.25;;;;;;;;;;10385774;28;20034;-80
2022/05/10 16:31:57;;;;;;;5.77;5.17;;;;;;;;;;10373872;28;20473;-80
2022/05/10 16:36:57;;;;;;;7.45;5.32;;;;;;;;;;10361964;28;20042;-79
2022/05/10 16:41:58;;;;;;;5.55;5.07;;;;;;;;;;10382599;28;20120;-80
2022/05/10 16:47:06;;;;;;;5.30;4.80;;;;;;;;;;10383476;28;20073;-80
2022/05/10 16:52:07;;;;;;;16.55;12.73;;;;;;;;;;10347148;28;20377;-79
2022/05/10 16:57:08;;;;;;;10.30;7.45;;;;;;;;;;10395635;28;20073;-79
2022/05/10 17:02:11;;;;;;;6.65;5.05;;;;;;;;;;10357415;28;20085;-79
2022/05/10 17:07:13;;;;;;;7.70;5.63;;;;;;;;;;10373793;28;20149;-80
2022/05/10 17:12:14;;;;;;;5.60;5.10;;;;;;;;;;10403036;28;20042;-79
2022/05/10 17:17:37;;;;;;;4.93;4.43;;;;;;;;;;10350108;28;20042;-79
2022/05/10 17:22:39;;;;;;;5.85;5.10;;;;;;;;;;10354807;28;20042;-79
2022/05/10 17:27:56;;;;;;;5.78;5.10;;;;;;;;;;10378142;28;20068;-78
2022/05/10 17:32:58;;;;;;;5.70;5.10;;;;;;;;;;10345486;28;20041;-78
2022/05/10 17:38:06;;;;;;;6.35;5.85;;;;;;;;;;10380506;28;20045;-78
2022/05/10 17:43:07;;;;;;;5.70;5.20;;;;;;;;;;10394510;28;20106;-79
2022/05/10 17:48:08;;;;;;;6.23;5.63;;;;;;;;;;10374770;28;20063;-79
2022/05/10 17:53:10;;;;;;;5.95;5.45;;;;;;;;;;10374380;28;20060;-79
2022/05/10 17:58:13;;;;;;;5.95;5.47;;;;;;;;;;10395478;28;20038;-80
2022/05/10 18:03:38;;;;;;;6.18;5.57;;;;;;;;;;10385351;28;20355;-79
2022/05/10 18:08:39;;;;;;;6.15;5.57;;;;;;;;;;10386168;28;20105;-79
2022/05/10 18:13:45;;;;;;;6.80;6.20;;;;;;;;;;10363568;28;20042;-79
2022/05/10 18:18:56;;;;;;;6.25;5.75;;;;;;;;;;10370078;28;20061;-80
2022/05/10 18:23:59;;;;;;;6.25;5.75;;;;;;;;;;10362233;28;20040;-79
2022/05/10 18:29:02;;;;;;;7.35;6.65;;;;;;;;;;10352389;28;20050;-79
2022/05/10 18:34:07;;;;;;;6.53;5.90;;;;;;;;;;10387650;28;20053;-79
2022/05/10 18:39:25;;;;;;;6.80;6.20;;;;;;;;;;10387158;28;20117;-79
2022/05/10 18:44:27;;;;;;;7.73;6.67;;;;;;;;;;10376176;28;20100;-79
2022/05/10 18:49:27;;;;;;;7.82;6.85;;;;;;;;;;10379256;28;20273;-78
2022/05/10 18:54:29;;;;;;;7.43;6.72;;;;;;;;;;10376076;28;20090;-78
2022/05/10 18:59:30;;;;;;;6.90;6.30;;;;;;;;;;10340647;28;20061;-78
2022/05/10 19:04:34;;;;;;;7.40;6.63;;;;;;;;;;10379407;28;20065;-78
2022/05/10 19:09:39;;;;;;;8.02;7.30;;;;;;;;;;10390947;28;20044;-78
2022/05/10 19:14:39;;;;;;;7.20;6.60;;;;;;;;;;10372958;28;20052;-79
2022/05/10 19:19:40;;;;;;;9.30;8.25;;;;;;;;;;10380512;28;20093;-78
2022/05/10 19:24:41;;;;;;;8.75;7.75;;;;;;;;;;10388515;28;20038;-79
2022/05/10 19:29:41;;;;;;;8.77;7.87;;;;;;;;;;10401542;28;20062;-77
2022/05/10 19:34:42;;;;;;;9.27;7.70;;;;;;;;;;10372419;28;20037;-78
2022/05/10 19:39:44;;;;;;;10.80;8.45;;;;;;;;;;10390282;28;20285;-78
2022/05/10 19:44:47;;;;;;;10.18;8.55;;;;;;;;;;10335146;28;20100;-78
2022/05/10 19:49:47;;;;;;;11.48;8.50;;;;;;;;;;10371671;28;20046;-79
2022/05/10 19:54:48;;;;;;;9.97;8.73;;;;;;;;;;10354917;28;20049;-78
2022/05/10 19:59:48;;;;;;;10.13;9.13;;;;;;;;;;10381695;28;20037;-80
2022/05/10 20:10:08;;;;;;;9.80;8.80;;;;;;;;;;10372168;28;20041;-79
2022/05/10 20:15:09;;;;;;;10.68;9.23;;;;;;;;;;10386340;28;20080;-79
2022/05/10 20:20:09;;;;;;;9.98;8.98;;;;;;;;;;10378350;28;20052;-78
2022/05/10 20:25:13;;;;;;;9.93;8.30;;;;;;;;;;10368122;28;20037;-79
2022/05/10 20:30:14;;;;;;;9.45;8.55;;;;;;;;;;10356269;28;20041;-78
2022/05/10 20:35:16;;;;;;;8.68;7.88;;;;;;;;;;10378017;28;20053;-77
2022/05/10 20:40:22;;;;;;;10.95;9.70;;;;;;;;;;10369762;28;20239;-77
2022/05/10 20:45:24;;;;;;;9.63;8.73;;;;;;;;;;10382949;28;20076;-78
2022/05/10 20:50:27;;;;;;;10.30;9.23;;;;;;;;;;10382180;28;20042;-78
2022/05/10 20:55:29;;;;;;;9.67;8.67;;;;;;;;;;10412047;28;20053;-78
2022/05/10 21:00:29;;;;;;;8.35;7.55;;;;;;;;;;10418465;28;20261;-80
2022/05/10 21:05:30;;;;;;;11.60;9.52;;;;;;;;;;10355225;28;20104;-78
2022/05/10 21:10:30;;;;;;;11.23;10.23;;;;;;;;;;10378175;28;20136;-77
2022/05/10 21:15:31;;;;;;;10.20;9.23;;;;;;;;;;10384143;28;20048;-77
2022/05/10 21:20:49;;;;;;;11.07;10.07;;;;;;;;;;10384504;28;20034;-78
2022/05/10 21:26:08;;;;;;;11.25;10.25;;;;;;;;;;10362613;28;20053;-77
2022/05/10 21:31:16;;;;;;;11.95;10.75;;;;;;;;;;10386663;28;20037;-78
2022/05/10 21:36:22;;;;;;;10.68;9.73;;;;;;;;;;10378181;28;20046;-78
2022/05/10 21:41:25;;;;;;;11.90;10.90;;;;;;;;;;10361126;28;20046;-77
2022/05/10 21:46:25;;;;;;;;;;;;;;;;;;10379514;28;20046;-77
2022/05/10 21:51:25;;;;;;;10.02;9.13;;;;;;;;;;10376680;28;20054;-77
2022/05/10 21:56:27;;;;;;;11.68;10.57;;;;;;;;;;10365425;28;20398;-78
2022/05/10 22:01:27;;;;;;;12.40;11.20;;;;;;;;;;10347369;28;20430;-78
2022/05/10 22:12:38;;;;;;;13.10;11.80;;;;;;;;;;10399342;28;20062;-77
2022/05/10 22:17:43;;;;;;;11.95;10.90;;;;;;;;;;10384615;28;20535;-78
2022/05/10 22:22:44;;;;;;;13.82;12.48;;;;;;;;;;10395095;28;20092;-78
2022/05/10 22:27:45;;;;;;;13.30;12.10;;;;;;;;;;10390019;28;20053;-79
2022/05/10 22:32:49;;;;;;;13.95;12.65;;;;;;;;;;10389408;28;20093;-77
2022/05/10 22:37:50;;;;;;;13.23;12.10;;;;;;;;;;10380965;28;20038;-77
2022/05/10 22:42:51;;;;;;;15.93;12.65;;;;;;;;;;10381954;28;20041;-77
2022/05/10 22:47:51;;;;;;;13.93;12.52;;;;;;;;;;10387790;28;20045;-78
2022/05/10 22:52:53;;;;;;;14.27;12.68;;;;;;;;;;10349405;28;20045;-77
2022/05/10 22:57:54;;;;;;;13.23;12.00;;;;;;;;;;10363775;28;20192;-78
2022/05/10 23:02:56;;;;;;;13.80;12.43;;;;;;;;;;10360082;28;20104;-78
2022/05/10 23:07:56;;;;;;;14.05;12.80;;;;;;;;;;10378259;28;20129;-77
2022/05/10 23:12:56;;;;;;;13.40;12.18;;;;;;;;;;10399278;28;20048;-76
2022/05/10 23:17:57;;;;;;;13.27;12.07;;;;;;;;;;10404013;28;20046;-76
2022/05/10 23:22:57;;;;;;;14.75;13.32;;;;;;;;;;10394224;28;20034;-76
2022/05/10 23:28:01;;;;;;;14.90;13.50;;;;;;;;;;10392729;28;20150;-76
2022/05/10 23:33:03;;;;;;;15.52;14.00;;;;;;;;;;10386011;28;20034;-77
2022/05/10 23:38:04;;;;;;;14.95;13.50;;;;;;;;;;10376108;28;20052;-78
2022/05/10 23:48:24;;;;;;;15.75;14.20;;;;;;;;;;10388827;28;20070;-79
2022/05/10 23:53:25;;;;;;;14.70;13.30;;;;;;;;;;10371173;28;20042;-78
2022/05/10 23:58:25;;;;;;;15.87;14.37;;;;;;;;;;10353801;28;20280;-78
